This is the latest recevied weather packets stored in our database for station/object WD5U-1. If no packets are shown the sender has not sent any weather packets the latest 10 day(s).
| Time | Temp. | Humidity | Pressure | Rain* | Wind** | Luminosity | Snow |
|---|---|---|---|---|---|---|---|
| 1777401977 | 27.78° C | 81% | 1012 hPa | 0 mm | - | - | - |
| 1777401765 | 28.33° C | 80% | 1011.8 hPa | 0 mm | - | - | - |
| 1777401501 | 28.33° C | 79% | 1011.8 hPa | 0 mm | - | - | - |
| 1777401383 | 28.89° C | 78% | 1012 hPa | 0 mm | - | - | - |
| 1777401036 | 28.89° C | 77% | 1012 hPa | 0 mm | - | - | - |
| 1777400540 | 28.33° C | 77% | 1012.1 hPa | 0 mm | - | - | - |
| 1777399821 | 28.33° C | 80% | 1012.5 hPa | 0 mm | - | - | - |
| 1777399477 | 27.78° C | 82% | 1012.8 hPa | 0 mm | - | - | - |
| 1777398900 | 27.78° C | 79% | 1012.7 hPa | 0 mm | - | - | - |
| 1777398738 | 27.78° C | 80% | 1012.7 hPa | 0 mm | - | - | - |
| 1777398505 | 27.22° C | 81% | 1012.8 hPa | 0 mm | - | - | - |
| 1777398262 | 26.11° C | 82% | 1012.8 hPa | 0 mm | - | - | - |
| 1777397776 | 27.78° C | 78% | 1013.2 hPa | 0 mm | - | - | - |
| 1777396582 | 25.56° C | 84% | 1013.5 hPa | 0 mm | - | - | - |
| 1777395645 | 24.44° C | 85% | 1013.6 hPa | 0 mm | - | - | - |
| 1777394538 | 23.33° C | 85% | 1013.7 hPa | 0 mm | - | - | - |
| 1777393345 | 21.67° C | 88% | 1013.7 hPa | 0 mm | - | - | - |
| 1777393222 | 21.67° C | 88% | 1013.8 hPa | 0 mm | - | - | - |
| 1777392979 | 21.67° C | 88% | 1014 hPa | 0 mm | - | - | - |
| 1777390823 | 21.11° C | 86% | 1013.6 hPa | 0 mm | - | - | - |
| 1777390337 | 21.11° C | 86% | 1014 hPa | 0 mm | - | - | - |
| 1777389882 | 21.11° C | 86% | 1014 hPa | 0 mm | - | - | - |
| 1777389376 | 20.56° C | 85% | 1013.8 hPa | 0 mm | - | - | - |
| 1777389265 | 20.56° C | 86% | 1013.6 hPa | 0 mm | - | - | - |
| 1777389042 | 20.56° C | 85% | 1013.8 hPa | 0 mm | - | - | - |
* Rain latest hour (hover to see other rain measurements)
** Current wind speed in m/s (hover to see current wind gust speed)